createdAt,value
2022-11-12T00:01:14.544Z,2.15
2022-11-12T00:03:41.797Z,2.38
2022-11-12T00:06:08.669Z,2.47
2022-11-12T00:08:37.155Z,1.98
2022-11-12T00:11:05.333Z,2.03
2022-11-12T00:13:31.925Z,2.35
2022-11-12T00:15:58.719Z,2.50
2022-11-12T00:18:25.807Z,2.30
2022-11-12T00:20:52.713Z,2.03
2022-11-12T00:23:19.270Z,2.33
2022-11-12T00:25:57.542Z,2.40
2022-11-12T00:28:26.038Z,2.15
2022-11-12T00:30:52.907Z,2.20
2022-11-12T00:33:19.715Z,2.05
2022-11-12T00:35:46.492Z,2.22
2022-11-12T00:38:18.009Z,2.20
2022-11-12T00:40:45.240Z,2.05
2022-11-12T00:43:11.898Z,1.93
2022-11-12T00:45:40.377Z,2.20
2022-11-12T00:48:06.920Z,2.10
2022-11-12T00:50:34.621Z,2.50
2022-11-12T00:53:01.970Z,2.28
2022-11-12T00:55:29.389Z,2.60
2022-11-12T00:57:58.702Z,2.30
2022-11-12T01:00:26.099Z,2.40
2022-11-12T01:02:55.632Z,2.30
2022-11-12T01:05:22.261Z,2.20
2022-11-12T01:07:54.691Z,2.70
2022-11-12T01:10:23.959Z,2.53
2022-11-12T01:12:51.545Z,2.50
2022-11-12T01:15:18.239Z,2.10
2022-11-12T01:17:44.814Z,1.90
2022-11-12T01:20:13.223Z,2.00
2022-11-12T01:22:39.757Z,2.03
2022-11-12T01:25:07.081Z,2.47
2022-11-12T01:27:33.915Z,2.10
2022-11-12T01:30:00.823Z,1.98
2022-11-12T01:32:27.770Z,2.23
2022-11-12T01:34:54.735Z,2.00
2022-11-12T01:37:23.086Z,1.90
2022-11-12T01:39:49.969Z,2.08
2022-11-12T01:42:16.775Z,2.30
2022-11-12T01:44:48.737Z,2.10
2022-11-12T01:47:21.866Z,1.95
2022-11-12T01:49:56.861Z,2.13
2022-11-12T01:52:32.154Z,1.77
2022-11-12T01:55:03.289Z,2.10
2022-11-12T01:57:37.249Z,2.03
2022-11-12T02:00:07.823Z,2.28
2022-11-12T02:02:36.826Z,2.17
2022-11-12T02:05:07.495Z,2.47
2022-11-12T02:07:39.367Z,1.90
2022-11-12T02:10:09.161Z,1.93
2022-11-12T02:12:36.648Z,2.20
2022-11-12T02:15:04.431Z,2.35
2022-11-12T02:17:33.827Z,2.30
2022-11-12T02:20:01.419Z,2.30
2022-11-12T02:22:29.555Z,2.10
2022-11-12T02:24:56.345Z,2.13
2022-11-12T02:27:24.372Z,2.40
2022-11-12T02:29:52.055Z,2.45
2022-11-12T02:32:18.814Z,2.20
2022-11-12T02:34:46.320Z,2.40
2022-11-12T02:37:12.864Z,2.00
2022-11-12T02:39:41.084Z,2.20
2022-11-12T02:42:07.726Z,2.22
2022-11-12T02:44:34.395Z,2.08
2022-11-12T02:47:00.934Z,2.50
2022-11-12T02:49:27.850Z,2.50
2022-11-12T02:51:54.680Z,2.03
2022-11-12T02:54:21.397Z,2.10
2022-11-12T02:56:49.426Z,2.22
2022-11-12T02:59:16.551Z,2.63
2022-11-12T03:01:43.156Z,2.30
2022-11-12T03:04:09.917Z,2.60
2022-11-12T03:06:36.546Z,2.65
2022-11-12T03:09:03.487Z,2.25
2022-11-12T03:11:33.026Z,2.53
2022-11-12T03:14:04.037Z,2.67
2022-11-12T03:16:30.734Z,2.25
2022-11-12T03:18:57.321Z,2.40
2022-11-12T03:21:23.884Z,2.00
2022-11-12T03:23:50.562Z,1.97
2022-11-12T03:26:17.707Z,1.80
2022-11-12T03:28:46.053Z,1.85
2022-11-12T03:31:14.019Z,1.90
2022-11-12T03:33:40.655Z,2.05
2022-11-12T03:36:08.609Z,2.00
2022-11-12T03:38:35.172Z,1.75
2022-11-12T03:41:02.058Z,1.95
2022-11-12T03:43:28.821Z,2.35
2022-11-12T03:45:55.810Z,2.10
2022-11-12T03:48:27.135Z,2.00
2022-11-12T03:50:58.014Z,1.80
2022-11-12T03:53:24.840Z,2.38
2022-11-12T03:55:51.462Z,2.03
2022-11-12T03:58:18.068Z,2.17
2022-11-12T04:00:44.913Z,1.93
2022-11-12T04:03:11.603Z,2.35
2022-11-12T04:05:39.948Z,2.10
2022-11-12T04:08:10.171Z,2.00
2022-11-12T04:10:36.735Z,2.28
2022-11-12T04:13:03.768Z,2.50
2022-11-12T04:15:30.328Z,1.88
2022-11-12T04:17:56.894Z,2.10
2022-11-12T04:20:23.455Z,2.50
2022-11-12T04:22:51.639Z,2.58
2022-11-12T04:25:18.287Z,2.30
2022-11-12T04:27:52.711Z,2.17
2022-11-12T04:30:19.404Z,2.33
2022-11-12T04:32:48.656Z,2.30
2022-11-12T04:35:15.775Z,2.50
2022-11-12T04:37:42.543Z,2.37
2022-11-12T04:40:13.813Z,2.08
2022-11-12T04:42:41.828Z,2.05
2022-11-12T04:45:09.809Z,2.20
2022-11-12T04:47:38.118Z,2.13
2022-11-12T04:50:08.744Z,2.30
2022-11-12T04:52:36.638Z,2.00
2022-11-12T04:55:07.329Z,2.22
2022-11-12T04:57:35.558Z,1.88
2022-11-12T05:00:02.566Z,1.75
2022-11-12T05:02:29.555Z,2.10
2022-11-12T05:04:56.419Z,1.95
2022-11-12T05:07:23.416Z,2.00
2022-11-12T05:09:50.415Z,2.30
2022-11-12T05:12:19.463Z,1.60
2022-11-12T05:14:47.446Z,1.73
2022-11-12T05:17:14.950Z,1.95
2022-11-12T05:19:41.532Z,1.80
2022-11-12T05:22:21.940Z,1.75
2022-11-12T05:24:57.229Z,1.63
2022-11-12T05:27:24.075Z,1.63
2022-11-12T05:29:52.290Z,1.75
2022-11-12T05:32:18.935Z,1.75
2022-11-12T05:34:46.109Z,1.42
2022-11-12T05:37:13.978Z,1.48
2022-11-12T05:39:41.066Z,1.60
2022-11-12T05:42:15.050Z,1.50
2022-11-12T05:44:43.749Z,1.60
2022-11-12T05:47:11.992Z,1.58
2022-11-12T05:49:38.533Z,1.83
2022-11-12T05:52:05.617Z,1.77
2022-11-12T05:54:32.284Z,1.50
2022-11-12T05:57:00.444Z,2.22
2022-11-12T05:59:27.073Z,2.15
2022-11-12T06:01:53.728Z,2.53
2022-11-12T06:04:22.291Z,2.43
2022-11-12T06:06:49.259Z,2.22
2022-11-12T06:09:17.866Z,2.40
2022-11-12T06:11:44.456Z,2.35
2022-11-12T06:14:12.752Z,2.30
2022-11-12T06:16:39.573Z,2.80
2022-11-12T06:19:06.807Z,2.10
2022-11-12T06:21:35.014Z,2.10
2022-11-12T06:24:01.736Z,2.60
2022-11-12T06:26:29.765Z,1.70
2022-11-12T06:28:59.278Z,1.90
2022-11-12T06:31:25.886Z,1.92
2022-11-12T06:33:53.000Z,1.70
2022-11-12T06:36:20.956Z,1.70
2022-11-12T06:38:50.377Z,1.77
2022-11-12T06:41:25.705Z,1.67
2022-11-12T06:43:52.606Z,1.80
2022-11-12T06:46:19.208Z,1.55
2022-11-12T06:48:45.785Z,1.75
2022-11-12T06:51:16.802Z,1.60
2022-11-12T06:53:43.759Z,1.70
2022-11-12T06:56:12.833Z,1.40
2022-11-12T06:58:40.071Z,1.75
2022-11-12T07:01:12.106Z,1.55
2022-11-12T07:03:41.068Z,1.67
2022-11-12T07:06:09.913Z,1.77
2022-11-12T07:08:37.473Z,1.92
2022-11-12T07:11:06.492Z,1.90
2022-11-12T07:13:35.551Z,2.30
2022-11-12T07:16:04.000Z,3.05
2022-11-12T07:18:33.392Z,3.10
2022-11-12T07:21:01.133Z,2.90
2022-11-12T07:23:28.686Z,2.55
2022-11-12T07:25:57.169Z,2.10
2022-11-12T07:28:26.335Z,1.98
2022-11-12T07:31:32.277Z,2.00
2022-11-12T07:34:00.184Z,1.67
2022-11-12T07:36:27.537Z,1.88
2022-11-12T07:38:55.329Z,1.88
2022-11-12T07:41:24.083Z,1.13
2022-11-12T07:43:56.724Z,1.50
2022-11-12T07:46:25.660Z,1.73
2022-11-12T07:48:53.126Z,1.88
2022-11-12T07:51:23.442Z,1.42
2022-11-12T07:53:56.235Z,1.48
2022-11-12T07:56:26.544Z,1.40
2022-11-12T07:58:53.312Z,1.50
2022-11-12T08:01:25.937Z,1.52
2022-11-12T08:04:07.895Z,1.45
2022-11-12T08:06:37.294Z,1.38
2022-11-12T08:09:06.458Z,1.20
2022-11-12T08:11:36.314Z,1.42
2022-11-12T08:14:03.359Z,1.10
2022-11-12T08:16:30.855Z,1.23
2022-11-12T08:18:57.999Z,1.00
2022-11-12T08:21:25.079Z,1.30
2022-11-12T08:23:59.537Z,1.40
2022-11-12T08:26:26.957Z,1.30
2022-11-12T08:28:56.013Z,1.67
2022-11-12T08:31:23.159Z,1.65
2022-11-12T08:33:50.354Z,1.50
2022-11-12T08:36:17.742Z,1.58
2022-11-12T08:38:46.716Z,1.48
2022-11-12T08:41:16.134Z,1.60
2022-11-12T08:43:43.191Z,1.58
2022-11-12T08:46:10.003Z,1.50
2022-11-12T08:48:37.214Z,1.30
2022-11-12T08:51:05.410Z,1.35
2022-11-12T08:53:32.295Z,1.60
2022-11-12T08:55:59.619Z,1.50
2022-11-12T08:58:28.331Z,1.67
2022-11-12T09:00:56.277Z,1.70
2022-11-12T09:03:26.124Z,1.60
2022-11-12T09:05:53.882Z,1.60
2022-11-12T09:08:24.961Z,1.50
2022-11-12T09:10:53.516Z,1.53
2022-11-12T09:13:20.908Z,1.15
2022-11-12T09:15:51.416Z,1.42
2022-11-12T09:18:21.079Z,1.40
2022-11-12T09:20:48.117Z,1.20
2022-11-12T09:23:16.681Z,1.13
2022-11-12T09:25:44.136Z,1.15
2022-11-12T09:28:13.188Z,1.02
2022-11-12T09:30:44.231Z,1.15
2022-11-12T09:33:16.206Z,1.40
2022-11-12T09:35:43.202Z,1.20
2022-11-12T09:38:10.133Z,1.20
2022-11-12T09:40:54.997Z,1.40
2022-11-12T09:43:27.378Z,1.70
2022-11-12T09:46:13.899Z,1.40
2022-11-12T09:48:52.790Z,1.40
2022-11-12T09:51:26.133Z,1.50
2022-11-12T09:53:55.878Z,1.60
2022-11-12T09:56:25.082Z,1.42
2022-11-12T09:58:57.910Z,1.60
2022-11-12T10:01:39.413Z,1.73
2022-11-12T10:04:37.183Z,1.50
2022-11-12T10:07:13.086Z,1.60
2022-11-12T10:09:50.600Z,1.50
2022-11-12T10:12:24.752Z,1.40
2022-11-12T10:15:11.721Z,1.30
2022-11-12T10:17:49.376Z,1.35
2022-11-12T10:20:28.672Z,1.40
2022-11-12T10:23:17.943Z,1.52
2022-11-12T10:25:48.203Z,1.48
2022-11-12T10:28:24.719Z,1.50
2022-11-12T10:30:54.203Z,1.33
2022-11-12T10:33:20.771Z,1.33
2022-11-12T10:35:53.661Z,1.30
2022-11-12T10:38:27.432Z,1.20
2022-11-12T10:40:54.298Z,1.33
2022-11-12T10:43:23.189Z,1.40
2022-11-12T10:45:51.246Z,1.40
2022-11-12T10:48:27.502Z,1.50
2022-11-12T10:50:56.727Z,1.50
2022-11-12T10:53:34.124Z,1.50
2022-11-12T10:56:02.431Z,1.20
2022-11-12T10:58:30.512Z,1.60
2022-11-12T11:01:00.926Z,1.60
2022-11-12T11:03:29.879Z,1.45
2022-11-12T11:06:00.468Z,1.40
2022-11-12T11:08:36.566Z,1.33
2022-11-12T11:11:19.091Z,1.13
2022-11-12T11:13:50.215Z,1.30
2022-11-12T11:16:24.445Z,1.60
2022-11-12T11:18:54.769Z,1.37
2022-11-12T11:21:46.533Z,1.30
2022-11-12T11:24:36.218Z,1.30
2022-11-12T11:27:10.618Z,1.30
2022-11-12T11:30:01.097Z,1.30
2022-11-12T11:32:47.624Z,1.30
2022-11-12T11:35:24.728Z,1.15
2022-11-12T11:38:05.590Z,1.20
2022-11-12T11:40:38.067Z,1.42
2022-11-12T11:43:20.825Z,1.17
2022-11-12T11:46:13.394Z,1.30
2022-11-12T11:48:52.671Z,1.50
2022-11-12T11:51:35.923Z,1.30
2022-11-12T11:54:16.021Z,1.30
2022-11-12T11:56:45.327Z,1.17
2022-11-12T11:59:33.724Z,1.37
2022-11-12T12:02:41.808Z,1.30
2022-11-12T12:05:25.361Z,1.10
2022-11-12T12:07:59.208Z,1.30
2022-11-12T12:11:06.333Z,1.52
2022-11-12T12:13:37.258Z,1.93
2022-11-12T12:16:29.808Z,1.20
2022-11-12T12:19:04.710Z,1.35
2022-11-12T12:21:34.983Z,1.48
2022-11-12T12:24:06.136Z,1.50
2022-11-12T12:26:40.383Z,1.50
2022-11-12T12:29:13.561Z,1.30
2022-11-12T12:31:45.350Z,1.50
2022-11-12T12:34:22.922Z,1.50
2022-11-12T12:36:54.108Z,1.58
2022-11-12T12:39:25.973Z,1.70
2022-11-12T12:41:58.670Z,1.17
2022-11-12T12:44:29.944Z,1.40
2022-11-12T12:47:00.127Z,1.42
2022-11-12T12:49:30.713Z,1.50
2022-11-12T12:51:59.699Z,1.40
2022-11-12T12:54:55.004Z,1.23
2022-11-12T12:57:36.657Z,1.40
2022-11-12T13:00:26.162Z,1.90
2022-11-12T13:02:53.165Z,1.65
2022-11-12T13:05:25.939Z,1.50
2022-11-12T13:07:53.569Z,1.58
2022-11-12T13:10:53.596Z,1.52
2022-11-12T13:13:37.417Z,1.38
2022-11-12T13:16:04.324Z,1.40
2022-11-12T13:19:01.986Z,1.47
2022-11-12T13:21:29.924Z,1.55
2022-11-12T13:23:59.092Z,1.40
2022-11-12T13:26:45.542Z,1.30
2022-11-12T13:29:42.325Z,1.48
2022-11-12T13:32:53.827Z,1.40
2022-11-12T13:35:33.326Z,1.50
2022-11-12T13:38:03.560Z,1.63
2022-11-12T13:40:41.311Z,1.30
2022-11-12T13:43:16.937Z,1.40
2022-11-12T13:45:49.028Z,1.57
2022-11-12T13:48:26.063Z,1.33
2022-11-12T13:50:56.914Z,1.20
2022-11-12T13:53:29.635Z,1.60
2022-11-12T13:55:57.076Z,1.50
2022-11-12T13:58:29.184Z,1.40
2022-11-12T14:00:57.988Z,1.58
2022-11-12T14:03:31.481Z,1.30
2022-11-12T14:06:08.177Z,1.50
2022-11-12T14:09:01.968Z,1.52
2022-11-12T14:11:46.702Z,1.40
2022-11-12T14:14:29.240Z,1.30
2022-11-12T14:17:20.870Z,1.60
2022-11-12T14:20:07.407Z,1.50
2022-11-12T14:22:42.370Z,1.45
2022-11-12T14:25:17.280Z,1.63
2022-11-12T14:27:43.816Z,1.30
2022-11-12T14:30:13.281Z,2.30
2022-11-12T14:32:43.971Z,1.50
2022-11-12T14:35:25.805Z,1.50
2022-11-12T14:37:59.465Z,1.40
2022-11-12T14:40:30.448Z,1.58
2022-11-12T14:42:57.607Z,1.50
2022-11-12T14:45:30.021Z,1.55
2022-11-12T14:47:59.380Z,1.50
2022-11-12T14:50:34.521Z,1.33
2022-11-12T14:53:19.246Z,1.50
2022-11-12T14:55:51.671Z,1.48
2022-11-12T14:58:22.144Z,1.40
2022-11-12T15:00:51.165Z,1.60
2022-11-12T15:03:28.680Z,1.43
2022-11-12T15:06:07.519Z,1.23
2022-11-12T15:08:44.776Z,1.50
2022-11-12T15:11:22.374Z,1.35
2022-11-12T15:13:51.607Z,1.33
2022-11-12T15:16:24.539Z,1.60
2022-11-12T15:19:36.448Z,1.40
2022-11-12T15:22:04.132Z,1.50
2022-11-12T15:24:34.107Z,1.55
2022-11-12T15:27:22.542Z,1.50
2022-11-12T15:29:49.099Z,1.50
2022-11-12T15:32:34.202Z,1.65
2022-11-12T15:35:01.641Z,1.77
2022-11-12T15:37:35.133Z,1.90
2022-11-12T15:40:11.197Z,1.98
2022-11-12T15:42:39.683Z,2.30
2022-11-12T15:45:14.475Z,1.92
2022-11-12T15:47:47.349Z,1.98
2022-11-12T15:50:16.688Z,2.13
2022-11-12T15:52:44.032Z,2.15
2022-11-12T15:55:13.573Z,2.30
2022-11-12T15:57:44.060Z,1.80
2022-11-12T16:00:15.838Z,1.90
2022-11-12T16:02:43.369Z,1.92
2022-11-12T16:05:13.394Z,1.70
2022-11-12T16:07:41.194Z,2.00
2022-11-12T16:10:15.663Z,1.80
2022-11-12T16:12:43.256Z,2.30
2022-11-12T16:15:13.699Z,1.90
2022-11-12T16:17:40.408Z,2.50
2022-11-12T16:20:14.393Z,1.87
2022-11-12T16:22:44.325Z,1.90
2022-11-12T16:25:10.863Z,1.92
2022-11-12T16:27:42.064Z,2.00
2022-11-12T16:30:16.259Z,1.80
2022-11-12T16:32:43.543Z,2.57
2022-11-12T16:35:10.579Z,2.17
2022-11-12T16:37:38.846Z,2.40
2022-11-12T16:40:07.275Z,2.97
2022-11-12T16:42:34.269Z,2.42
2022-11-12T16:45:02.302Z,3.00
2022-11-12T16:47:29.085Z,2.47
2022-11-12T16:49:55.663Z,2.65
2022-11-12T16:52:25.355Z,2.50
2022-11-12T16:54:52.041Z,2.45
2022-11-12T17:18:19.117Z,2.97
2022-11-12T17:20:50.923Z,2.70
2022-11-12T17:23:18.290Z,2.20
2022-11-12T17:25:44.872Z,2.20
2022-11-12T17:28:11.535Z,2.10
2022-11-12T17:30:38.071Z,2.05
2022-11-12T17:33:04.574Z,1.73
2022-11-12T17:35:33.915Z,1.77
2022-11-12T17:38:00.446Z,1.97
2022-11-12T17:40:26.944Z,1.88
2022-11-12T17:42:53.376Z,1.77
2022-11-12T17:45:19.803Z,1.95
2022-11-12T17:47:46.418Z,1.80
2022-11-12T17:50:13.233Z,2.20
2022-11-12T17:52:41.093Z,2.20
2022-11-12T17:55:08.500Z,2.10
2022-11-12T17:57:35.124Z,2.40
2022-11-12T18:00:01.648Z,2.42
2022-11-12T18:02:28.216Z,2.70
2022-11-12T18:04:54.701Z,3.20
2022-11-12T18:07:21.237Z,2.90
2022-11-12T18:09:49.133Z,2.50
2022-11-12T18:12:15.746Z,2.33
2022-11-12T18:14:42.207Z,2.57
2022-11-12T18:17:08.675Z,2.45
2022-11-12T18:19:35.274Z,2.20
2022-11-12T18:22:01.786Z,2.60
2022-11-12T18:24:28.347Z,2.85
2022-11-12T18:26:56.216Z,2.83
2022-11-12T18:29:22.777Z,2.80
2022-11-12T18:31:49.345Z,2.63
2022-11-12T18:34:16.024Z,2.70
2022-11-12T18:36:42.547Z,3.70
2022-11-12T18:39:09.136Z,2.50
2022-11-12T18:41:35.756Z,2.72
2022-11-12T18:44:03.783Z,2.60
2022-11-12T18:46:30.446Z,2.50
2022-11-12T18:48:56.918Z,2.90
2022-11-12T18:51:23.461Z,2.70
2022-11-12T18:53:50.374Z,2.22
2022-11-12T18:56:19.235Z,2.40
2022-11-12T18:58:46.394Z,2.55
2022-11-12T19:01:16.402Z,2.40
2022-11-12T19:03:43.952Z,2.30
2022-11-12T19:06:11.677Z,2.30
2022-11-12T19:08:38.442Z,2.13
2022-11-12T19:11:07.350Z,2.40
2022-11-12T19:13:34.062Z,2.22
2022-11-12T19:16:03.855Z,2.30
2022-11-12T19:18:32.335Z,2.30
2022-11-12T19:21:03.094Z,2.20
2022-11-12T19:23:30.406Z,2.15
2022-11-12T19:25:59.967Z,2.50
2022-11-12T19:28:26.818Z,2.37
2022-11-12T19:30:53.836Z,2.30
2022-11-12T19:33:20.589Z,2.17
2022-11-12T19:35:48.550Z,2.50
2022-11-12T19:38:15.555Z,2.20
2022-11-12T19:40:42.448Z,2.10
2022-11-12T19:43:08.962Z,2.30
2022-11-12T19:45:35.497Z,2.55
2022-11-12T19:48:02.036Z,2.45
2022-11-12T19:50:28.626Z,2.72
2022-11-12T19:52:56.642Z,3.53
2022-11-12T19:55:23.519Z,2.80
2022-11-12T19:57:49.978Z,2.63
2022-11-12T20:00:17.378Z,2.90
2022-11-12T20:02:44.168Z,2.60
2022-11-12T20:05:10.743Z,2.80
2022-11-12T20:07:37.489Z,2.58
2022-11-12T20:10:06.200Z,2.40
2022-11-12T20:12:32.826Z,2.30
2022-11-12T20:14:59.444Z,2.30
2022-11-12T20:17:28.444Z,2.50
2022-11-12T20:19:59.963Z,2.55
2022-11-12T20:22:32.116Z,2.30
2022-11-12T20:24:59.420Z,2.60
2022-11-12T20:27:27.341Z,2.40
2022-11-12T20:29:54.280Z,2.50
2022-11-12T20:32:22.524Z,2.25
2022-11-12T20:34:49.047Z,2.38
2022-11-12T20:37:19.652Z,2.50
2022-11-12T20:39:46.256Z,2.50
2022-11-12T20:42:13.102Z,2.80
2022-11-12T20:44:40.998Z,2.90
2022-11-12T20:47:07.735Z,3.10
2022-11-12T20:49:51.377Z,3.25
2022-11-12T20:52:43.464Z,2.78
2022-11-12T20:55:10.402Z,2.63
2022-11-12T20:57:37.336Z,2.88
2022-11-12T21:00:07.388Z,2.60
2022-11-12T21:02:36.784Z,3.25
2022-11-12T21:05:04.324Z,3.22
2022-11-12T21:07:31.270Z,2.60
2022-11-12T21:09:57.832Z,2.67
2022-11-12T21:12:24.622Z,2.90
2022-11-12T21:14:52.455Z,2.47
2022-11-12T21:17:20.490Z,2.30
2022-11-12T21:19:47.347Z,2.30
2022-11-12T21:22:13.848Z,2.30
2022-11-12T21:24:40.413Z,1.90
2022-11-12T21:27:06.974Z,2.00
2022-11-12T21:29:33.767Z,1.92
2022-11-12T21:32:00.337Z,2.00
2022-11-12T21:34:33.770Z,1.73
2022-11-12T21:37:00.794Z,1.73
2022-11-12T21:39:27.361Z,1.80
2022-11-12T21:45:46.465Z,1.77
2022-11-12T21:48:13.670Z,1.70
2022-11-12T21:50:41.524Z,1.70
2022-11-12T21:53:10.677Z,1.80
2022-11-12T21:55:37.266Z,1.80
2022-11-12T21:58:03.954Z,1.90
2022-11-12T22:00:46.353Z,1.92
2022-11-12T22:03:12.881Z,1.50
2022-11-12T22:05:40.907Z,1.70
2022-11-12T22:08:07.524Z,1.70
2022-11-12T22:10:34.120Z,1.83
2022-11-12T22:13:27.873Z,1.75
2022-11-12T22:15:47.142Z,1.77
2022-11-12T22:18:13.823Z,1.85
2022-11-12T22:20:55.825Z,1.60
2022-11-12T22:23:22.421Z,1.90
2022-11-12T22:25:49.059Z,1.90
2022-11-12T22:28:15.618Z,1.58
2022-11-12T22:30:42.265Z,1.70
2022-11-12T22:33:10.888Z,1.70
2022-11-12T22:35:37.539Z,1.80
2022-11-12T22:38:05.927Z,1.50
2022-11-12T22:40:34.486Z,1.80
2022-11-12T22:43:01.176Z,2.55
2022-11-12T22:45:27.777Z,2.55
2022-11-12T22:47:54.453Z,2.27
2022-11-12T22:50:26.962Z,2.28
2022-11-12T22:52:55.144Z,2.30
2022-11-12T22:55:23.033Z,1.98
2022-11-12T22:57:49.547Z,1.95
2022-11-12T23:00:19.146Z,2.00
2022-11-12T23:02:47.653Z,1.90
2022-11-12T23:05:14.556Z,1.90
2022-11-12T23:07:43.129Z,2.10
2022-11-12T23:10:11.302Z,2.50
2022-11-12T23:12:57.402Z,1.90
2022-11-12T23:15:23.933Z,1.80
2022-11-12T23:17:50.544Z,2.45
2022-11-12T23:20:17.461Z,2.10
2022-11-12T23:22:43.930Z,2.15
2022-11-12T23:25:10.433Z,1.93
2022-11-12T23:27:39.934Z,2.35
2022-11-12T23:30:16.331Z,2.50
2022-11-12T23:32:42.909Z,2.05
2022-11-12T23:35:11.770Z,2.38
2022-11-12T23:37:38.473Z,2.77
2022-11-12T23:40:06.038Z,2.58
2022-11-12T23:42:32.562Z,2.70
2022-11-12T23:44:59.225Z,2.75
2022-11-12T23:47:27.129Z,2.88
2022-11-12T23:49:53.751Z,2.60
2022-11-12T23:52:20.201Z,2.92
2022-11-12T23:54:46.663Z,2.75
2022-11-12T23:57:13.192Z,2.60
2022-11-12T23:59:39.697Z,2.83
